Time;durP1;ratioP1;P1;durP2;ratioP2;P2;SDS_P1;SDS_P2;PMS_P1;PMS_P2;Temp;Humidity;BMP_temperature;BMP_pressure;BME280_temperature;BME280_humidity;BME280_pressure;Samples;Min_cycle;Max_cycle;Signal;HPM_P1;HPM_P2
2023/10/02 00:03:34;;;;;;;11.23;6.00;;;;;;;11.77;100.00;101347.63;4955343;28;20427;-65
2023/10/02 00:06:01;;;;;;;11.82;5.68;;;;;;;11.82;100.00;101349.84;4955355;28;20046;-65
2023/10/02 00:08:42;;;;;;;12.75;5.78;;;;;;;11.82;100.00;101358.75;4955094;28;20055;-65
2023/10/02 00:14:18;;;;;;;16.58;6.25;;;;;;;11.82;100.00;101355.22;4955044;28;20098;-70
2023/10/02 00:17:13;;;;;;;14.95;5.15;;;;;;;11.82;100.00;101356.06;4954883;28;20443;-70
2023/10/02 00:19:42;;;;;;;11.10;5.47;;;;;;;11.86;100.00;101359.28;4953784;28;20177;-68
2023/10/02 00:22:36;;;;;;;13.27;5.97;;;;;;;11.85;100.00;101358.44;4954293;28;20051;-68
2023/10/02 00:25:07;;;;;;;16.35;6.20;;;;;;;11.89;100.00;101356.28;4954101;28;20419;-69
2023/10/02 00:27:35;;;;;;;15.02;6.00;;;;;;;11.89;100.00;101361.66;4955199;28;20463;-65
2023/10/02 00:30:07;;;;;;;15.65;5.95;;;;;;;11.85;100.00;101355.75;4957470;28;20051;-64
2023/10/02 00:32:35;;;;;;;12.85;5.90;;;;;;;11.76;100.00;101345.94;4956318;28;20043;-65
2023/10/02 00:35:03;;;;;;;14.13;6.30;;;;;;;11.78;100.00;101349.28;4956100;28;20434;-67
2023/10/02 00:37:51;;;;;;;17.30;6.05;;;;;;;11.80;100.00;101347.31;4957168;28;20051;-64
2023/10/02 00:40:30;;;;;;;14.52;6.28;;;;;;;11.78;100.00;101338.53;4954534;28;20059;-69
2023/10/02 00:42:59;;;;;;;14.48;6.03;;;;;;;11.78;100.00;101343.06;4954421;28;20047;-68
2023/10/02 00:45:38;;;;;;;14.63;6.82;;;;;;;11.77;100.00;101347.63;4954179;28;20047;-68
2023/10/02 00:50:58;;;;;;;14.23;6.00;;;;;;;11.80;100.00;101347.31;4953781;28;20189;-70
2023/10/02 00:53:38;;;;;;;14.55;6.07;;;;;;;11.79;100.00;101342.91;4952211;28;20134;-68
2023/10/02 00:56:20;;;;;;;13.45;6.15;;;;;;;11.77;100.00;101347.63;4953654;28;20050;-70
2023/10/02 00:58:58;;;;;;;12.90;6.22;;;;;;;11.77;100.00;101342.25;4953017;28;20054;-69
2023/10/02 01:01:26;;;;;;;16.70;6.88;;;;;;;11.83;100.00;101348.81;4953885;28;20638;-68
2023/10/02 01:04:23;;;;;;;13.98;6.18;;;;;;;11.80;100.00;101355.38;4953870;28;20050;-69
2023/10/02 01:07:22;;;;;;;16.25;6.00;;;;;;;11.82;100.00;101350.69;4953753;28;20047;-69
2023/10/02 01:10:08;;;;;;;14.15;6.35;;;;;;;11.76;100.00;101345.94;4953254;28;20106;-68
2023/10/02 01:12:43;;;;;;;18.42;6.70;;;;;;;11.76;100.00;101345.94;4955171;28;20047;-65
2023/10/02 01:15:13;;;;;;;14.48;6.72;;;;;;;11.77;100.00;101344.94;4955904;28;20412;-64
2023/10/02 01:17:41;;;;;;;14.02;6.97;;;;;;;11.80;100.00;101347.31;4956145;28;20349;-64
2023/10/02 01:20:21;;;;;;;14.63;7.22;;;;;;;11.77;100.00;101353.00;4938323;28;20047;-65
2023/10/02 01:22:52;;;;;;;15.57;7.35;;;;;;;11.84;100.00;101359.44;4933046;29;20047;-66
2023/10/02 01:25:23;;;;;;;14.73;6.78;;;;;;;11.86;100.00;101362.84;4933732;29;20139;-67
2023/10/02 01:27:53;;;;;;;14.80;6.75;;;;;;;11.89;100.00;101356.28;4934693;29;20419;-71
2023/10/02 01:30:22;;;;;;;14.63;7.30;;;;;;;11.88;100.00;101366.19;4934866;29;20044;-69
2023/10/02 01:35:46;;;;;;;17.63;6.75;;;;;;;11.97;100.00;101366.28;4942647;29;20112;-63
2023/10/02 01:38:14;;;;;;;19.27;6.78;;;;;;;12.01;100.00;101365.00;4952487;29;20070;-62
2023/10/02 01:41:04;;;;;;;16.65;6.70;;;;;;;12.02;100.00;101355.91;4952839;29;20043;-62
2023/10/02 01:43:44;;;;;;;15.95;6.55;;;;;;;12.03;100.00;101360.28;4952296;29;20050;-63
2023/10/02 01:46:17;;;;;;;16.63;7.00;;;;;;;12.01;100.00;101365.00;4952148;29;20088;-63
2023/10/02 01:48:48;;;;;;;16.30;7.85;;;;;;;12.04;100.00;101362.00;4951941;29;20063;-63
2023/10/02 01:51:26;;;;;;;14.38;6.70;;;;;;;12.07;100.00;101367.91;4952961;29;20055;-63
2023/10/02 01:53:56;;;;;;;18.45;6.97;;;;;;;12.10;100.00;101374.81;4952454;29;20052;-62
2023/10/02 01:56:25;;;;;;;17.63;7.10;;;;;;;12.03;100.00;101366.50;4952087;28;20115;-64
2023/10/02 01:58:54;;;;;;;16.45;7.07;;;;;;;12.09;100.00;101368.56;4953134;29;20151;-63
2023/10/02 02:01:21;;;;;;;12.77;6.70;;;;;;;12.11;100.00;101366.59;4952345;29;20059;-63
2023/10/02 02:03:50;;;;;;;14.88;6.75;;;;;;;12.12;100.00;101364.75;4952921;29;20079;-63
2023/10/02 02:06:22;;;;;;;15.40;7.57;;;;;;;12.11;100.00;101365.75;4952404;29;20055;-63
2023/10/02 02:08:56;;;;;;;12.40;7.00;;;;;;;12.03;100.00;101362.97;4952054;29;20072;-62
2023/10/02 02:11:26;;;;;;;13.27;6.47;;;;;;;12.08;100.00;101361.53;4952065;29;20057;-61
2023/10/02 02:13:55;;;;;;;19.52;7.32;;;;;;;12.04;100.00;101357.47;4951929;29;20060;-62
2023/10/02 02:16:30;;;;;;;16.33;7.15;;;;;;;11.96;100.00;101346.59;4951636;29;20051;-61
2023/10/02 02:18:58;;;;;;;16.55;7.68;;;;;;;11.98;100.00;101358.06;4959442;28;20051;-61
2023/10/02 02:21:25;;;;;;;14.55;6.63;;;;;;;12.06;100.00;101357.28;4971013;28;20110;-64
2023/10/02 02:24:08;;;;;;;18.40;7.00;;;;;;;12.08;100.00;101358.00;4971186;28;20051;-63
2023/10/02 02:26:39;;;;;;;14.02;7.47;;;;;;;12.07;100.00;101348.22;4970754;28;20043;-65
2023/10/02 02:29:23;;;;;;;16.55;6.95;;;;;;;12.08;100.00;101349.91;4971045;28;20111;-62
2023/10/02 02:31:55;;;;;;;15.77;6.93;;;;;;;12.04;100.00;101357.47;4971678;28;20106;-62
2023/10/02 02:34:26;;;;;;;17.15;7.10;;;;;;;12.06;100.00;101349.22;4971024;28;20592;-62
2023/10/02 02:36:57;;;;;;;18.15;7.60;;;;;;;12.02;100.00;101345.16;4965414;28;20106;-65
2023/10/02 02:39:24;;;;;;;17.42;6.85;;;;;;;12.01;100.00;101338.09;4954061;28;20043;-66
2023/10/02 02:44:46;;;;;;;15.02;6.68;;;;;;;11.90;100.00;101331.94;4954444;28;20055;-66
2023/10/02 02:47:15;;;;;;;15.70;7.00;;;;;;;11.80;100.00;101333.03;4953834;28;20051;-67
2023/10/02 02:49:58;;;;;;;15.30;7.43;;;;;;;11.70;100.00;101322.34;4953094;28;20074;-67
2023/10/02 02:52:28;;;;;;;15.55;8.15;;;;;;;11.63;100.00;101318.53;4952936;28;20055;-66
2023/10/02 02:54:59;;;;;;;16.25;7.03;;;;;;;11.62;100.00;101316.84;4952629;28;20071;-65
2023/10/02 02:57:29;;;;;;;19.08;8.40;;;;;;;11.55;100.00;101313.94;4952561;28;20077;-65
2023/10/02 03:00:24;;;;;;;21.63;7.93;;;;;;;11.53;100.00;101317.78;4952906;28;20071;-66
2023/10/02 03:02:46;;;;;;;16.55;7.65;;;;;;;11.49;100.00;101311.84;4952833;28;20051;-66
2023/10/02 03:05:14;;;;;;;16.20;7.80;;;;;;;11.48;100.00;101303.94;4953024;28;20102;-66
2023/10/02 03:07:42;;;;;;;15.13;7.35;;;;;;;11.34;100.00;101298.06;4952781;28;20434;-66
2023/10/02 03:10:14;;;;;;;16.08;7.68;;;;;;;11.28;100.00;101287.13;4952931;28;20044;-67
2023/10/02 03:12:45;;;;;;;19.52;7.82;;;;;;;11.25;100.00;101288.25;4952815;28;20043;-66
2023/10/02 03:15:17;;;;;;;18.05;7.45;;;;;;;11.23;100.00;101287.53;4953085;28;20053;-65
2023/10/02 03:17:45;;;;;;;18.55;7.93;;;;;;;11.11;100.00;101280.72;4952449;28;20043;-66
2023/10/02 03:20:22;;;;;;;19.65;8.18;;;;;;;10.94;100.00;101259.03;4936032;28;20054;-65
2023/10/02 03:22:53;;;;;;;18.95;8.90;;;;;;;10.83;100.00;101244.97;4937479;29;20043;-69
2023/10/02 03:25:26;;;;;;;20.73;8.48;;;;;;;10.79;100.00;101236.38;4937535;29;20058;-69
2023/10/02 03:27:54;;;;;;;19.45;7.82;;;;;;;10.77;100.00;101238.34;4937344;29;20054;-69
2023/10/02 03:30:38;;;;;;;18.92;8.15;;;;;;;10.54;100.00;101203.00;4937225;29;20111;-70
2023/10/02 03:33:19;;;;;;;21.88;9.20;;;;;;;10.35;100.00;101176.25;4937432;29;20052;-69
2023/10/02 03:36:04;;;;;;;20.10;9.38;;;;;;;9.99;100.00;101138.53;4936066;29;20133;-69
2023/10/02 03:38:33;;;;;;;24.05;7.97;;;;;;;9.60;100.00;101084.25;4936922;29;20040;-68
2023/10/02 03:41:01;;;;;;;21.83;9.43;;;;;;;9.40;100.00;101038.75;4936919;29;20102;-69
2023/10/02 03:43:35;;;;;;;18.58;8.63;;;;;;;9.32;100.00;101033.28;4937677;29;20496;-66
2023/10/02 03:46:04;;;;;;;19.08;8.80;;;;;;;9.02;100.00;100994.13;4938785;29;20052;-65
2023/10/02 03:48:36;;;;;;;23.90;8.82;;;;;;;9.00;100.00;100996.97;4938955;29;20063;-65
2023/10/02 03:51:04;;;;;;;14.60;8.02;;;;;;;8.73;100.00;100951.38;4938142;29;20559;-64
2023/10/02 03:53:30;;;;;;;19.90;9.00;;;;;;;8.41;100.00;100903.56;4938816;29;20492;-64
2023/10/02 03:56:48;;;;;;;20.15;9.23;;;;;;;8.02;100.00;100842.06;4938231;29;20048;-64
2023/10/02 03:58:51;;;;;;;16.05;8.40;;;;;;;7.90;100.00;100831.53;4933211;29;20043;-64
2023/10/02 04:01:30;;;;;;;23.45;9.18;;;;;;;7.73;100.00;100805.50;4937508;29;20151;-65
2023/10/02 04:06:33;;;;;;;21.45;9.48;;;;;;;7.19;100.00;100721.44;4937087;29;20115;-66
2023/10/02 04:11:51;;;;;;;22.98;10.60;;;;;;;7.07;100.00;100702.03;4937560;29;20044;-65
2023/10/02 04:14:23;;;;;;;23.52;8.68;;;;;;;6.56;100.00;100619.53;4938138;29;20073;-66
2023/10/02 04:17:01;;;;;;;20.88;9.95;;;;;;;6.56;100.00;100617.72;4936306;29;20060;-66
2023/10/02 04:19:28;;;;;;;20.80;9.07;;;;;;;6.48;100.00;100612.22;4949556;28;20055;-65
2023/10/02 04:21:57;;;;;;;24.00;9.30;;;;;;;6.41;100.00;100608.44;4957147;28;20168;-65
2023/10/02 04:24:24;;;;;;;23.40;9.90;;;;;;;6.54;100.00;100637.50;4949608;28;20048;-65
2023/10/02 04:27:05;;;;;;;24.02;9.82;;;;;;;6.68;100.00;100661.09;4968763;28;20051;-65
2023/10/02 04:29:37;;;;;;;23.45;10.35;;;;;;;6.59;100.00;100651.25;4956770;28;20043;-65
2023/10/02 04:32:18;;;;;;;23.98;9.68;;;;;;;6.21;100.00;100592.31;4954737;28;20066;-65
2023/10/02 04:34:56;;;;;;;19.65;9.00;;;;;;;6.62;100.00;100651.81;4956074;28;20440;-65
2023/10/02 04:37:23;;;;;;;25.45;10.48;;;;;;;6.23;100.00;100602.88;4955688;28;20051;-65
2023/10/02 04:40:08;;;;;;;24.05;10.23;;;;;;;5.81;100.00;100527.59;4956018;28;20051;-64
2023/10/02 04:45:25;;;;;;;24.60;10.23;;;;;;;6.17;100.00;100598.91;4956978;28;20570;-65
2023/10/02 04:47:58;;;;;;;21.73;8.98;;;;;;;6.07;100.00;100581.22;4956617;28;20051;-65
2023/10/02 04:55:41;;;;;;;21.63;9.65;;;;;;;6.81;100.00;100706.19;4956703;28;20043;-65
2023/10/02 04:58:14;;;;;;;26.02;10.55;;;;;;;6.81;100.00;100703.53;4955367;28;20093;-66
2023/10/02 05:01:23;;;;;;;20.55;9.70;;;;;;;6.77;100.00;100696.75;4955560;28;20482;-65
2023/10/02 05:03:36;;;;;;;24.95;11.52;;;;;;;6.66;100.00;100685.22;4956415;28;20365;-65
2023/10/02 05:06:04;;;;;;;21.85;10.15;;;;;;;6.45;100.00;100658.63;4955363;29;20080;-66
2023/10/02 05:08:34;;;;;;;30.55;10.50;;;;;;;6.24;100.00;100628.53;4956307;28;20094;-65
2023/10/02 05:13:53;;;;;;;25.65;10.52;;;;;;;6.49;100.00;100669.88;4956020;28;20047;-65
2023/10/02 05:16:27;;;;;;;29.20;10.80;;;;;;;6.56;100.00;100687.00;4955564;28;20047;-66
2023/10/02 05:18:54;;;;;;;27.85;10.82;;;;;;;6.50;100.00;100676.91;4949058;28;20074;-66
2023/10/02 05:21:35;;;;;;;23.33;9.88;;;;;;;6.47;100.00;100678.00;4937243;29;20052;-64
2023/10/02 05:24:11;;;;;;;28.48;12.10;;;;;;;6.52;100.00;100692.75;4935800;29;20066;-64
2023/10/02 05:26:41;;;;;;;29.35;10.73;;;;;;;6.87;100.00;100743.78;4937164;29;20058;-65
2023/10/02 05:29:09;;;;;;;26.55;10.85;;;;;;;6.86;100.00;100744.78;4936353;29;20074;-65
2023/10/02 05:31:40;;;;;;;24.58;10.30;;;;;;;6.91;100.00;100749.69;4936842;29;20102;-66
2023/10/02 05:34:25;;;;;;;23.73;10.73;;;;;;;7.05;100.00;100773.38;4937569;29;20193;-65
2023/10/02 05:39:39;;;;;;;25.95;11.65;;;;;;;7.05;100.00;100778.69;4936369;29;20078;-65
2023/10/02 05:42:13;;;;;;;25.50;13.05;;;;;;;7.15;100.00;100797.38;4936479;29;20479;-65
2023/10/02 05:44:42;;;;;;;28.65;11.85;;;;;;;7.33;100.00;100816.25;4936045;29;20058;-64
2023/10/02 05:47:11;;;;;;;24.60;11.32;;;;;;;7.60;100.00;100872.53;4936223;29;20087;-65
2023/10/02 05:49:47;;;;;;;29.10;11.52;;;;;;;7.97;100.00;100927.16;4937233;29;20043;-64
2023/10/02 05:52:23;;;;;;;25.63;11.15;;;;;;;8.08;100.00;100935.88;4937938;29;20411;-65
2023/10/02 05:54:53;;;;;;;26.48;11.57;;;;;;;8.06;100.00;100937.88;4938501;29;20051;-65
2023/10/02 05:57:22;;;;;;;26.63;10.88;;;;;;;8.10;100.00;100943.78;4937946;29;20056;-65
2023/10/02 05:59:54;;;;;;;33.47;11.15;;;;;;;8.27;100.00;100955.59;4937428;29;20055;-64
2023/10/02 06:02:23;;;;;;;28.17;11.75;;;;;;;8.39;100.00;100989.22;4937967;29;20464;-65
2023/10/02 06:04:54;;;;;;;23.58;11.07;;;;;;;8.46;100.00;100993.03;4937432;28;20059;-69
2023/10/02 06:07:44;;;;;;;23.40;11.13;;;;;;;8.65;100.00;101024.31;4933601;28;20075;-66
2023/10/02 06:10:26;;;;;;;26.20;10.77;;;;;;;8.81;100.00;101045.13;4934299;28;20548;-68
2023/10/02 06:13:06;;;;;;;30.50;12.63;;;;;;;8.94;100.00;101064.41;4934672;28;20100;-69
2023/10/02 06:15:48;;;;;;;25.83;11.13;;;;;;;9.05;100.00;101080.31;4932238;29;20057;-68
2023/10/02 06:18:24;;;;;;;27.45;12.65;;;;;;;9.34;100.00;101118.84;4933962;28;20055;-68
2023/10/02 06:21:03;;;;;;;27.35;11.85;;;;;;;9.55;100.00;101157.84;4934455;28;20039;-68
2023/10/02 06:23:37;;;;;;;27.75;12.68;;;;;;;9.72;100.00;101174.19;4933897;28;20135;-65
2023/10/02 06:26:10;;;;;;;25.65;11.90;;;;;;;9.89;100.00;101185.97;4933633;29;20433;-65
2023/10/02 06:28:39;;;;;;;35.20;13.50;;;;;;;9.95;100.00;101194.28;4933993;29;20468;-72
2023/10/02 06:31:06;;;;;;;27.88;12.18;;;;;;;10.14;100.00;101217.53;4933564;29;20457;-67
2023/10/02 06:33:37;;;;;;;26.98;12.38;;;;;;;10.31;100.00;101240.06;4934480;29;20055;-65
2023/10/02 06:36:08;;;;;;;26.30;11.52;;;;;;;10.56;100.00;101253.84;4934223;28;20055;-65
2023/10/02 06:38:36;;;;;;;27.80;12.43;;;;;;;10.60;100.00;101261.44;4933935;28;20063;-66
2023/10/02 06:41:12;;;;;;;24.55;11.95;;;;;;;10.82;100.00;101270.94;4934169;29;20047;-66
2023/10/02 06:43:39;;;;;;;29.90;12.27;;;;;;;11.09;100.00;101291.59;4933595;28;20059;-67
2023/10/02 06:46:16;;;;;;;29.17;12.23;;;;;;;11.38;100.00;101312.06;4933733;29;20134;-67
2023/10/02 06:48:46;;;;;;;30.63;12.60;;;;;;;11.43;100.00;101317.81;4933859;29;20564;-64
2023/10/02 06:51:13;;;;;;;27.55;12.23;;;;;;;11.61;100.00;101323.22;4936581;28;20180;-65
2023/10/02 06:53:41;;;;;;;25.75;11.25;;;;;;;11.66;100.00;101321.81;4945938;28;20058;-61
2023/10/02 06:56:12;;;;;;;30.00;12.88;;;;;;;11.76;100.00;101334.31;4950436;28;20062;-63
2023/10/02 06:59:00;;;;;;;29.10;13.02;;;;;;;11.99;100.00;101338.22;4951279;28;20103;-63
2023/10/02 07:01:27;;;;;;;27.60;12.93;;;;;;;12.37;100.00;101339.72;4936318;28;20131;-65
2023/10/02 07:03:56;;;;;;;32.92;17.92;;;;;;;12.88;100.00;101365.00;4936413;28;20047;-64
2023/10/02 07:06:24;;;;;;;27.33;13.05;;;;;;;13.37;100.00;101383.25;4935717;29;20062;-64
2023/10/02 07:09:10;;;;;;;30.98;11.45;;;;;;;13.74;100.00;101392.81;4935940;29;20048;-64
2023/10/02 07:11:39;;;;;;;35.92;13.38;;;;;;;14.29;100.00;101398.47;4935723;28;20067;-64
2023/10/02 07:14:06;;;;;;;24.92;12.32;;;;;;;14.69;100.00;101414.81;4935782;28;20044;-65
2023/10/02 07:16:33;;;;;;;30.65;12.93;;;;;;;14.88;100.00;101413.66;4935966;28;20074;-65
2023/10/02 07:19:01;;;;;;;25.80;12.05;;;;;;;15.11;100.00;101411.06;4936149;29;20512;-64
2023/10/02 07:21:30;;;;;;;25.83;12.45;;;;;;;15.03;100.00;101417.31;4935896;29;20055;-65
2023/10/02 07:24:02;;;;;;;29.98;12.23;;;;;;;15.31;100.00;101415.03;4936572;28;20551;-64
2023/10/02 07:29:17;;;;;;;27.58;12.50;;;;;;;15.80;100.00;101427.53;4936709;29;19927;-65
2023/10/02 07:31:45;;;;;;;28.85;12.68;;;;;;;16.17;100.00;101422.22;4936470;29;20146;-65
2023/10/02 07:34:15;;;;;;;25.55;13.50;;;;;;;16.15;100.00;101424.25;4936558;28;20043;-64
2023/10/02 07:36:45;;;;;;;25.73;12.30;;;;;;;16.43;100.00;101418.28;4936214;28;20699;-64
2023/10/02 07:39:58;;;;;;;32.70;12.73;;;;;;;16.69;100.00;101419.81;4935374;29;20099;-65
2023/10/02 07:42:04;;;;;;;26.52;11.98;;;;;;;16.77;100.00;101419.72;4929684;29;20051;-66
2023/10/02 07:44:37;;;;;;;28.30;12.68;;;;;;;16.97;100.00;101412.75;4936648;29;20122;-65
2023/10/02 07:47:16;;;;;;;26.42;12.48;;;;;;;17.32;100.00;101410.31;4936553;29;20107;-66
2023/10/02 07:49:48;;;;;;;24.30;12.55;;;;;;;17.30;100.00;101412.38;4936104;29;20051;-65
2023/10/02 07:52:26;;;;;;;25.58;12.10;;;;;;;17.38;100.00;101415.03;4941891;28;20055;-65
2023/10/02 07:54:58;;;;;;;24.00;11.90;;;;;;;17.83;100.00;101411.19;4936701;29;21129;-66
2023/10/02 07:57:32;;;;;;;21.85;11.90;;;;;;;18.06;100.00;101416.47;4936959;28;20043;-65
2023/10/02 08:00:05;;;;;;;23.98;12.38;;;;;;;18.35;100.00;101401.09;4936792;29;20075;-64
2023/10/02 08:02:33;;;;;;;24.85;10.73;;;;;;;18.76;100.00;101400.41;4936856;28;20114;-64
2023/10/02 08:05:03;;;;;;;23.08;11.27;;;;;;;19.07;100.00;101404.56;4936162;29;20079;-67
2023/10/02 08:07:30;;;;;;;20.65;10.82;;;;;;;19.20;99.08;101399.22;4937793;29;20460;-65
2023/10/02 08:10:15;;;;;;;23.98;11.70;;;;;;;19.53;96.11;101404.00;4939863;29;20102;-65
2023/10/02 08:13:05;;;;;;;21.30;11.25;;;;;;;19.62;92.05;101400.91;4940167;29;20071;-65
2023/10/02 08:15:32;;;;;;;23.83;10.85;;;;;;;20.19;87.58;101405.03;4946737;29;20041;-63
2023/10/02 08:18:03;;;;;;;25.75;11.73;;;;;;;20.31;82.94;101402.53;4954347;29;20047;-66
2023/10/02 08:20:37;;;;;;;21.40;10.98;;;;;;;20.25;84.79;101406.09;4917380;29;20044;-66
2023/10/02 08:23:21;;;;;;;23.23;10.88;;;;;;;20.38;82.32;101402.53;4916977;29;20040;-67
2023/10/02 08:26:00;;;;;;;21.92;10.75;;;;;;;20.58;78.30;101402.56;4917719;29;20052;-73
2023/10/02 08:28:48;;;;;;;22.27;10.63;;;;;;;20.67;79.16;101412.22;4917600;29;20127;-69
2023/10/02 08:31:15;;;;;;;27.25;11.75;;;;;;;20.57;78.27;101406.34;4917394;29;20131;-66
2023/10/02 08:33:43;;;;;;;21.50;9.98;;;;;;;20.19;81.31;101398.75;4917690;29;20534;-66
2023/10/02 08:36:28;;;;;;;21.23;11.00;;;;;;;20.04;84.98;101392.63;4917414;29;20063;-67
2023/10/02 08:38:55;;;;;;;25.58;11.43;;;;;;;20.30;84.60;101395.41;4916903;29;20485;-66
2023/10/02 08:41:46;;;;;;;22.48;10.63;;;;;;;20.37;85.71;101395.41;4917050;29;20050;-67
2023/10/02 08:44:13;;;;;;;20.65;10.18;;;;;;;20.47;82.40;101389.59;4917235;29;20498;-67
2023/10/02 08:46:43;;;;;;;21.17;10.95;;;;;;;20.14;83.25;101398.53;4916860;29;20055;-68
2023/10/02 08:49:16;;;;;;;24.60;11.87;;;;;;;20.56;83.55;101394.63;4917072;29;20045;-67
2023/10/02 08:51:49;;;;;;;20.27;10.27;;;;;;;20.95;79.25;101389.31;4916790;29;20462;-66
2023/10/02 08:54:18;;;;;;;22.70;10.30;;;;;;;21.55;72.64;101388.09;4916294;29;20075;-67
2023/10/02 08:56:48;;;;;;;22.20;10.00;;;;;;;21.52;72.80;101388.53;4918390;29;20047;-64
2023/10/02 08:59:26;;;;;;;19.17;10.15;;;;;;;21.83;71.29;101398.69;4918803;29;20088;-65
2023/10/02 09:02:08;;;;;;;17.63;9.45;;;;;;;22.08;68.45;101387.84;4918632;29;20445;-66
2023/10/02 09:04:35;;;;;;;20.17;9.25;;;;;;;23.24;64.70;101386.38;4919058;29;20055;-65
2023/10/02 09:07:14;;;;;;;22.98;9.68;;;;;;;23.06;62.65;101383.63;4919448;29;20059;-64
2023/10/02 09:09:45;;;;;;;18.58;10.35;;;;;;;23.38;61.53;101387.06;4918625;29;20036;-65
2023/10/02 09:12:17;;;;;;;16.38;8.60;;;;;;;23.43;60.57;101384.47;4919097;29;20055;-65
2023/10/02 09:14:43;;;;;;;17.88;10.07;;;;;;;23.55;59.77;101376.31;4918507;29;20048;-67
2023/10/02 09:17:18;;;;;;;19.90;9.68;;;;;;;23.72;59.56;101374.59;4917800;29;20398;-66
2023/10/02 09:19:58;;;;;;;17.00;9.40;;;;;;;24.51;57.10;101377.25;4918560;29;20052;-66
2023/10/02 09:22:26;;;;;;;19.27;9.45;;;;;;;25.07;54.77;101374.97;4919093;29;20112;-66
2023/10/02 09:25:23;;;;;;;18.20;9.20;;;;;;;24.95;53.75;101372.19;4919702;29;20044;-66
2023/10/02 09:27:56;;;;;;;16.10;9.07;;;;;;;25.07;53.78;101370.31;4923740;29;20493;-64
2023/10/02 09:33:16;;;;;;;14.77;8.65;;;;;;;26.13;50.84;101375.38;4931690;29;20072;-63
2023/10/02 09:36:05;;;;;;;17.00;8.30;;;;;;;26.83;48.80;101357.59;4930971;29;20099;-63
2023/10/02 09:38:53;;;;;;;21.08;8.25;;;;;;;27.33;46.39;101355.75;4931370;29;20048;-63
2023/10/02 09:41:20;;;;;;;15.90;8.15;;;;;;;27.18;46.06;101348.94;4933091;29;20119;-63
2023/10/02 09:43:49;;;;;;;14.40;8.80;;;;;;;27.07;46.85;101349.91;4931705;29;20385;-65
2023/10/02 09:46:22;;;;;;;15.75;8.30;;;;;;;27.56;45.13;101351.91;4929499;29;20055;-63
2023/10/02 09:49:02;;;;;;;14.57;8.00;;;;;;;28.10;44.40;101349.94;4930475;29;20058;-65
2023/10/02 09:52:10;;;;;;;18.17;9.32;;;;;;;28.34;43.11;101342.16;4928226;29;20070;-63
2023/10/02 09:54:48;;;;;;;23.70;8.82;;;;;;;28.22;43.80;101341.50;4944927;29;20052;-63
2023/10/02 09:57:25;;;;;;;21.33;8.77;;;;;;;28.14;43.21;101334.53;4930223;29;20059;-62
2023/10/02 09:59:55;;;;;;;16.50;8.82;;;;;;;27.74;43.42;101337.75;4930450;29;20063;-64
2023/10/02 10:07:46;;;;;;;11.68;8.02;;;;;;;26.73;45.81;101335.38;4929646;29;20044;-63
2023/10/02 10:13:37;;;;;;;20.25;9.48;;;;;;;27.25;45.44;101335.81;4930661;29;20060;-63
2023/10/02 10:16:18;;;;;;;23.33;8.95;;;;;;;27.55;45.29;101328.16;4930647;29;20076;-63
2023/10/02 10:21:55;;;;;;;15.38;8.82;;;;;;;27.36;44.60;101334.03;4961168;28;20047;-67
2023/10/02 10:24:36;;;;;;;18.80;8.90;;;;;;;26.30;47.14;101324.00;4968738;28;20078;-65
2023/10/02 10:27:03;;;;;;;14.07;8.65;;;;;;;27.32;45.45;101321.88;4969882;28;20378;-63
2023/10/02 10:29:41;;;;;;;17.13;8.65;;;;;;;27.60;44.87;101317.22;4970006;28;20051;-63
2023/10/02 10:32:18;;;;;;;16.20;8.57;;;;;;;27.89;44.60;101320.53;4969573;28;20043;-63
2023/10/02 10:35:17;;;;;;;15.70;9.15;;;;;;;27.16;44.25;101318.06;4969950;28;20047;-62
2023/10/02 10:37:48;;;;;;;14.40;7.88;;;;;;;26.96;45.41;101318.63;4968656;28;20043;-65
2023/10/02 10:40:44;;;;;;;14.95;8.60;;;;;;;26.51;46.87;101316.06;4967769;28;20051;-64
2023/10/02 10:43:12;;;;;;;17.42;8.30;;;;;;;25.93;48.81;101315.41;4967569;28;20759;-64
2023/10/02 10:45:40;;;;;;;15.35;8.20;;;;;;;25.33;50.13;101310.41;4968454;28;20050;-65
2023/10/02 10:48:23;;;;;;;15.52;8.50;;;;;;;24.97;51.94;101312.41;4969882;28;20047;-63
2023/10/02 10:50:59;;;;;;;15.05;7.70;;;;;;;24.28;54.02;101306.72;4969580;28;20055;-64
2023/10/02 10:53:27;;;;;;;14.07;8.48;;;;;;;24.52;54.71;101298.53;4969434;28;20537;-65
2023/10/02 10:56:16;;;;;;;14.27;7.88;;;;;;;24.99;53.13;101293.81;4969699;28;20062;-64
2023/10/02 10:58:44;;;;;;;12.95;7.22;;;;;;;25.21;52.92;101295.91;4966682;28;20043;-64
2023/10/02 11:01:20;;;;;;;14.52;7.30;;;;;;;24.46;54.34;101294.81;4966539;28;20365;-63
2023/10/02 11:03:54;;;;;;;14.95;7.40;;;;;;;23.95;55.83;101288.06;4969422;28;20066;-64
2023/10/02 11:06:24;;;;;;;13.35;6.95;;;;;;;23.73;56.97;101283.13;4969067;28;20055;-62
2023/10/02 11:09:15;;;;;;;13.18;6.43;;;;;;;23.83;58.00;101289.97;4968854;28;20400;-63
2023/10/02 11:11:53;;;;;;;14.67;7.60;;;;;;;23.32;59.37;101294.06;4968867;28;20047;-63
2023/10/02 11:14:34;;;;;;;15.00;8.45;;;;;;;22.97;60.09;101283.72;4968098;28;20339;-64
2023/10/02 11:17:04;;;;;;;;;;;;;;;23.08;60.69;101280.22;4968529;28;20053;-63
2023/10/02 11:22:20;;;;;;;17.42;7.80;;;;;;;22.90;60.53;101274.78;4947363;29;20095;-63
2023/10/02 11:24:53;;;;;;;19.63;7.97;;;;;;;23.14;60.89;101271.13;4947674;29;20051;-63
2023/10/02 11:27:23;;;;;;;16.35;9.77;;;;;;;23.36;60.22;101268.72;4948987;29;20079;-63
2023/10/02 11:30:03;;;;;;;17.42;9.38;;;;;;;23.48;58.99;101271.50;4949505;29;20071;-62
2023/10/02 11:32:54;;;;;;;18.60;9.50;;;;;;;23.64;57.80;101262.63;4949945;29;20047;-63
2023/10/02 11:35:28;;;;;;;15.18;9.10;;;;;;;23.77;57.04;101271.72;4949141;29;20044;-63
2023/10/02 11:37:56;;;;;;;18.40;10.35;;;;;;;23.89;56.24;101272.59;4948316;29;20051;-63
2023/10/02 11:40:28;;;;;;;24.90;10.10;;;;;;;23.34;57.38;101275.50;4948557;29;20055;-63
2023/10/02 11:42:59;;;;;;;21.20;10.52;;;;;;;23.42;57.36;101265.03;4950741;29;20055;-62
2023/10/02 11:45:28;;;;;;;23.42;9.43;;;;;;;23.85;57.23;101279.59;4951512;29;20103;-63
2023/10/02 11:47:56;;;;;;;18.42;9.18;;;;;;;23.91;57.24;101271.28;4951540;29;20055;-62
2023/10/02 11:50:23;;;;;;;18.98;9.40;;;;;;;24.38;55.62;101262.25;4951026;29;20051;-62
2023/10/02 11:52:51;;;;;;;18.27;9.88;;;;;;;24.66;54.64;101262.34;4953700;29;20072;-64
2023/10/02 11:55:19;;;;;;;21.20;10.20;;;;;;;24.64;54.08;101259.00;4951826;29;20054;-62
2023/10/02 11:57:51;;;;;;;20.98;9.25;;;;;;;24.82;53.54;101260.78;4952954;29;20056;-63
2023/10/02 12:00:20;;;;;;;20.38;9.98;;;;;;;24.64;53.51;101264.50;4951491;29;20473;-64
2023/10/02 12:02:49;;;;;;;20.00;10.40;;;;;;;24.53;53.70;101268.09;4951061;29;20500;-66
2023/10/02 12:05:19;;;;;;;20.52;10.10;;;;;;;24.56;54.19;101262.13;4952502;29;20048;-62
2023/10/02 12:07:46;;;;;;;20.88;9.73;;;;;;;24.75;54.13;101259.22;4950657;29;20091;-63
2023/10/02 12:10:15;;;;;;;17.80;10.27;;;;;;;24.77;52.83;101259.84;4951568;29;20416;-63
2023/10/02 12:12:46;;;;;;;20.80;10.20;;;;;;;24.72;53.20;101257.81;4949601;29;20048;-64
2023/10/02 12:15:15;;;;;;;16.88;9.45;;;;;;;24.84;53.07;101257.78;4948166;29;20047;-63
2023/10/02 12:17:44;;;;;;;18.70;9.43;;;;;;;24.87;52.81;101249.06;4950841;29;20131;-63
2023/10/02 12:20:12;;;;;;;16.42;10.07;;;;;;;24.88;53.38;101247.97;4969203;28;20055;-63
2023/10/02 12:22:40;;;;;;;19.08;9.13;;;;;;;25.17;52.27;101245.31;4970192;28;20050;-64
2023/10/02 12:25:10;;;;;;;16.48;10.68;;;;;;;24.61;52.51;101251.28;4970157;28;20051;-65
2023/10/02 12:27:39;;;;;;;21.98;10.88;;;;;;;24.07;54.92;101247.81;4970443;28;20051;-65
2023/10/02 12:30:11;;;;;;;18.52;11.07;;;;;;;23.55;56.71;101244.84;4970743;28;20047;-64
2023/10/02 12:32:39;;;;;;;19.55;10.52;;;;;;;23.58;57.77;101236.16;4970524;28;20057;-62
2023/10/02 12:35:06;;;;;;;21.05;10.52;;;;;;;23.71;57.38;101233.22;4970448;28;20063;-68